createdAt,value
2018-07-04T00:00:26.498Z,24.99
2018-07-04T00:01:07.006Z,25
2018-07-04T00:01:47.519Z,24.99
2018-07-04T00:02:30.811Z,24.91
2018-07-04T00:03:11.336Z,24.99
2018-07-04T00:03:52.806Z,25.03
2018-07-04T00:04:34.112Z,25.02
2018-07-04T00:05:14.625Z,24.99
2018-07-04T00:05:55.122Z,24.9
2018-07-04T00:06:35.580Z,25.03
2018-07-04T00:07:16.077Z,24.88
2018-07-04T00:07:57.517Z,24.91
2018-07-04T00:08:38.032Z,24.9
2018-07-04T00:09:18.572Z,24.93
2018-07-04T00:09:59.056Z,24.96
2018-07-04T00:10:39.513Z,25.02
2018-07-04T00:11:20.049Z,24.99
2018-07-04T00:12:00.496Z,24.9
2018-07-04T00:12:41.016Z,24.96
2018-07-04T00:13:21.548Z,24.96
2018-07-04T00:14:02.118Z,24.9
2018-07-04T00:14:42.594Z,24.93
2018-07-04T00:15:23.101Z,24.88
2018-07-04T00:16:03.697Z,24.81
2018-07-04T00:16:44.172Z,24.93
2018-07-04T00:17:24.656Z,24.83
2018-07-04T00:18:05.146Z,24.81
2018-07-04T00:18:45.682Z,24.78
2018-07-04T00:19:26.165Z,24.67
2018-07-04T00:20:06.701Z,24.76
2018-07-04T00:20:47.161Z,24.78
2018-07-04T00:21:27.672Z,24.71
2018-07-04T00:22:08.218Z,24.73
2018-07-04T00:22:48.700Z,24.69
2018-07-04T00:23:29.214Z,24.71
2018-07-04T00:24:10.503Z,24.67
2018-07-04T00:24:51.033Z,24.62
2018-07-04T00:25:31.540Z,24.68
2018-07-04T00:26:11.989Z,24.62
2018-07-04T00:26:52.556Z,24.73
2018-07-04T00:27:33.006Z,24.67
2018-07-04T00:28:14.134Z,24.69
2018-07-04T00:28:54.646Z,24.71
2018-07-04T00:29:35.769Z,24.78
2018-07-04T00:30:16.275Z,24.69
2018-07-04T00:30:56.742Z,24.77
2018-07-04T00:31:38.000Z,24.71
2018-07-04T00:32:18.482Z,24.68
2018-07-04T00:32:59.735Z,24.77
2018-07-04T00:33:40.261Z,24.78
2018-07-04T00:34:20.794Z,24.68
2018-07-04T00:35:01.274Z,24.67
2018-07-04T00:35:41.723Z,24.69
2018-07-04T00:36:22.222Z,24.69
2018-07-04T00:37:03.639Z,24.8
2018-07-04T00:37:44.103Z,24.8
2018-07-04T00:38:24.603Z,24.67
2018-07-04T00:39:05.099Z,24.65
2018-07-04T00:39:45.635Z,24.67
2018-07-04T00:40:26.149Z,24.64
2018-07-04T00:41:06.628Z,24.64
2018-07-04T00:41:47.098Z,24.73
2018-07-04T00:42:27.599Z,24.73
2018-07-04T00:43:08.088Z,24.67
2018-07-04T00:43:48.577Z,24.67
2018-07-04T00:44:29.071Z,24.65
2018-07-04T00:45:11.407Z,24.61
2018-07-04T00:45:52.670Z,24.71
2018-07-04T00:46:33.111Z,24.65
2018-07-04T00:47:13.613Z,24.76
2018-07-04T00:47:54.149Z,24.73
2018-07-04T00:48:34.638Z,24.78
2018-07-04T00:49:15.105Z,24.76
2018-07-04T00:49:55.659Z,24.64
2018-07-04T00:50:36.164Z,24.73
2018-07-04T00:51:18.237Z,24.67
2018-07-04T00:51:58.742Z,24.61
2018-07-04T00:52:40.007Z,24.64
2018-07-04T00:53:20.546Z,24.73
2018-07-04T00:54:01.015Z,24.62
2018-07-04T00:54:41.484Z,24.64
2018-07-04T00:55:22.897Z,24.69
2018-07-04T00:56:03.385Z,24.64
2018-07-04T00:56:43.872Z,24.67
2018-07-04T00:57:25.147Z,24.65
2018-07-04T00:58:05.653Z,24.57
2018-07-04T00:58:46.170Z,24.53
2018-07-04T00:59:26.683Z,24.58
2018-07-04T01:00:07.160Z,24.49
2018-07-04T01:00:47.612Z,24.47
2018-07-04T01:01:28.741Z,24.45
2018-07-04T01:02:09.272Z,24.39
2018-07-04T01:02:49.780Z,24.32
2018-07-04T01:03:30.234Z,24.32
2018-07-04T01:04:10.760Z,24.39
2018-07-04T01:04:51.197Z,24.32
2018-07-04T01:05:31.708Z,24.45
2018-07-04T01:06:12.202Z,24.46
2018-07-04T01:06:52.663Z,24.47
2018-07-04T01:07:33.202Z,24.52
2018-07-04T01:08:13.691Z,24.45
2018-07-04T01:08:54.238Z,24.37
2018-07-04T01:09:34.733Z,24.37
2018-07-04T01:10:15.274Z,24.46
2018-07-04T01:10:55.757Z,24.35
2018-07-04T01:11:36.248Z,24.42
2018-07-04T01:12:16.787Z,24.46
2018-07-04T01:12:57.293Z,24.53
2018-07-04T01:13:37.784Z,24.52
2018-07-04T01:14:18.272Z,24.47
2018-07-04T01:14:58.796Z,24.49
2018-07-04T01:15:39.260Z,24.47
2018-07-04T01:16:20.705Z,24.49
2018-07-04T01:17:01.161Z,24.4
2018-07-04T01:17:41.630Z,24.37
2018-07-04T01:18:22.254Z,24.31
2018-07-04T01:19:02.716Z,24.31
2018-07-04T01:19:43.847Z,24.34
2018-07-04T01:20:24.336Z,24.31
2018-07-04T01:21:04.856Z,24.34
2018-07-04T01:21:45.301Z,24.42
2018-07-04T01:22:25.843Z,24.4
2018-07-04T01:23:07.005Z,24.39
2018-07-04T01:23:47.509Z,24.39
2018-07-04T01:24:28.001Z,24.46
2018-07-04T01:25:09.163Z,24.47
2018-07-04T01:25:49.648Z,24.47
2018-07-04T01:26:30.176Z,24.5
2018-07-04T01:27:10.652Z,24.46
2018-07-04T01:27:51.147Z,24.45
2018-07-04T01:28:31.664Z,24.42
2018-07-04T01:29:12.124Z,24.49
2018-07-04T01:29:53.185Z,24.5
2018-07-04T01:30:33.673Z,24.42
2018-07-04T01:31:15.145Z,24.45
2018-07-04T01:31:55.630Z,24.47
2018-07-04T01:32:36.758Z,24.53
2018-07-04T01:33:17.227Z,24.5
2018-07-04T01:33:57.720Z,24.46
2018-07-04T01:34:38.207Z,24.46
2018-07-04T01:35:18.710Z,24.46
2018-07-04T01:35:59.236Z,24.39
2018-07-04T01:36:39.695Z,24.37
2018-07-04T01:37:20.237Z,24.39
2018-07-04T01:38:00.700Z,24.37
2018-07-04T01:38:41.221Z,24.39
2018-07-04T01:39:21.764Z,24.39
2018-07-04T01:40:02.805Z,24.37
2018-07-04T01:40:43.253Z,24.49
2018-07-04T01:41:23.796Z,24.45
2018-07-04T01:42:04.249Z,24.45
2018-07-04T01:42:45.250Z,24.34
2018-07-04T01:43:26.475Z,24.39
2018-07-04T01:44:07.200Z,24.3
2018-07-04T01:44:47.691Z,24.37
2018-07-04T01:45:28.866Z,24.34
2018-07-04T01:46:09.351Z,24.32
2018-07-04T01:46:51.755Z,24.4
2018-07-04T01:47:32.306Z,24.43
2018-07-04T01:48:13.464Z,24.39
2018-07-04T01:48:53.995Z,24.46
2018-07-04T01:49:35.260Z,24.42
2018-07-04T01:50:15.790Z,24.5
2018-07-04T01:50:56.219Z,24.46
2018-07-04T01:51:37.449Z,24.34
2018-07-04T01:52:17.951Z,24.35
2018-07-04T01:52:58.445Z,24.35
2018-07-04T01:53:38.935Z,24.39
2018-07-04T01:54:19.481Z,24.32
2018-07-04T01:54:59.958Z,24.3
2018-07-04T01:55:40.487Z,24.31
2018-07-04T01:56:20.960Z,24.16
2018-07-04T01:57:01.439Z,24.22
2018-07-04T01:57:41.926Z,24.27
2018-07-04T01:58:22.438Z,24.18
2018-07-04T01:59:02.911Z,24.13
2018-07-04T01:59:43.425Z,24.25
2018-07-04T02:00:23.927Z,24.25
2018-07-04T02:01:04.963Z,24.3
2018-07-04T02:01:45.439Z,24.15
2018-07-04T02:02:25.929Z,24.15
2018-07-04T02:03:06.429Z,24.2
2018-07-04T02:03:47.000Z,24.24
2018-07-04T02:04:27.450Z,24.15
2018-07-04T02:05:07.940Z,24.16
2018-07-04T02:05:48.451Z,24.21
2018-07-04T02:06:29.868Z,24.15
2018-07-04T02:07:10.379Z,24.21
2018-07-04T02:07:52.361Z,24.08
2018-07-04T02:08:32.852Z,24.16
2018-07-04T02:09:13.895Z,24.1
2018-07-04T02:09:55.094Z,24.1
2018-07-04T02:10:36.577Z,24.09
2018-07-04T02:11:17.048Z,24.15
2018-07-04T02:11:57.597Z,24.09
2018-07-04T02:12:38.089Z,24.02
2018-07-04T02:13:18.577Z,24.02
2018-07-04T02:14:00.059Z,24.05
2018-07-04T02:14:40.525Z,24.05
2018-07-04T02:15:21.067Z,24.08
2018-07-04T02:16:01.555Z,24.13
2018-07-04T02:16:42.028Z,24.08
2018-07-04T02:17:24.373Z,24.18
2018-07-04T02:18:04.902Z,24.1
2018-07-04T02:18:45.378Z,24.09
2018-07-04T02:19:25.856Z,24.09
2018-07-04T02:20:06.373Z,24.15
2018-07-04T02:20:46.854Z,24.06
2018-07-04T02:21:28.284Z,24.13
2018-07-04T02:22:08.803Z,24.12
2018-07-04T02:22:49.320Z,24.03
2018-07-04T02:23:29.785Z,24.03
2018-07-04T02:24:10.277Z,24.06
2018-07-04T02:24:50.821Z,24.06
2018-07-04T02:25:31.285Z,23.97
2018-07-04T02:26:11.796Z,24
2018-07-04T02:26:52.289Z,23.95
2018-07-04T02:27:32.794Z,24.05
2018-07-04T02:28:13.297Z,24.05
2018-07-04T02:28:53.765Z,24.02
2018-07-04T02:29:34.876Z,24.03
2018-07-04T02:30:15.384Z,23.87
2018-07-04T02:30:55.886Z,23.8
2018-07-04T02:31:36.349Z,23.87
2018-07-04T02:32:17.808Z,23.87
2018-07-04T02:32:58.971Z,23.72
2018-07-04T02:33:39.519Z,23.68
2018-07-04T02:34:19.982Z,23.72
2018-07-04T02:35:00.496Z,23.72
2018-07-04T02:35:40.953Z,23.72
2018-07-04T02:36:21.450Z,23.75
2018-07-04T02:37:01.960Z,23.73
2018-07-04T02:37:42.389Z,23.72
2018-07-04T02:38:22.891Z,23.69
2018-07-04T02:39:04.207Z,23.7
2018-07-04T02:39:44.707Z,23.7
2018-07-04T02:40:25.179Z,23.78
2018-07-04T02:41:05.690Z,23.72
2018-07-04T02:41:46.245Z,23.69
2018-07-04T02:42:26.727Z,23.7
2018-07-04T02:43:08.202Z,23.68
2018-07-04T02:43:48.658Z,23.61
2018-07-04T02:44:29.717Z,23.6
2018-07-04T02:45:10.224Z,23.61
2018-07-04T02:45:51.515Z,23.75
2018-07-04T02:46:32.017Z,23.66
2018-07-04T02:47:12.484Z,23.63
2018-07-04T02:47:52.999Z,23.58
2018-07-04T02:48:33.454Z,23.54
2018-07-04T02:49:14.469Z,23.5
2018-07-04T02:49:54.982Z,23.54
2018-07-04T02:50:35.506Z,23.57
2018-07-04T02:51:15.973Z,23.55
2018-07-04T02:51:57.110Z,23.5
2018-07-04T02:52:37.562Z,23.5
2018-07-04T02:53:18.091Z,23.57
2018-07-04T02:53:59.485Z,23.43
2018-07-04T02:54:40.013Z,23.47
2018-07-04T02:55:20.485Z,23.5
2018-07-04T02:56:00.953Z,23.5
2018-07-04T02:56:42.210Z,23.43
2018-07-04T02:57:22.707Z,23.57
2018-07-04T02:58:03.203Z,23.42
2018-07-04T02:58:43.681Z,23.66
2018-07-04T02:59:24.167Z,23.72
2018-07-04T03:00:04.725Z,23.65
2018-07-04T03:00:45.206Z,23.75
2018-07-04T03:01:26.404Z,23.72
2018-07-04T03:02:07.913Z,23.75
2018-07-04T03:02:49.299Z,23.75
2018-07-04T03:03:29.817Z,23.8
2018-07-04T03:04:10.285Z,23.69
2018-07-04T03:04:50.814Z,23.75
2018-07-04T03:05:32.191Z,23.72
2018-07-04T03:06:12.712Z,23.72
2018-07-04T03:06:53.200Z,23.69
2018-07-04T03:07:33.732Z,23.76
2018-07-04T03:08:14.223Z,23.75
2018-07-04T03:08:54.751Z,23.78
2018-07-04T03:09:35.220Z,23.7
2018-07-04T03:10:15.736Z,23.76
2018-07-04T03:10:57.236Z,23.72
2018-07-04T03:11:37.740Z,23.84
2018-07-04T03:12:18.239Z,23.75
2018-07-04T03:12:58.697Z,23.63
2018-07-04T03:13:39.198Z,23.72
2018-07-04T03:14:19.672Z,23.8
2018-07-04T03:15:00.172Z,23.69
2018-07-04T03:15:40.682Z,23.76
2018-07-04T03:16:21.230Z,23.79
2018-07-04T03:17:01.683Z,23.87
2018-07-04T03:17:42.343Z,23.83
2018-07-04T03:18:22.790Z,23.85
2018-07-04T03:19:03.300Z,23.91
2018-07-04T03:19:43.799Z,23.88
2018-07-04T03:20:24.293Z,23.93
2018-07-04T03:21:04.763Z,23.94
2018-07-04T03:21:45.277Z,23.88
2018-07-04T03:22:26.606Z,23.98
2018-07-04T03:23:07.120Z,24.02
2018-07-04T03:23:47.608Z,24.02
2018-07-04T03:24:28.100Z,24.02
2018-07-04T03:25:08.609Z,23.95
2018-07-04T03:25:49.113Z,23.97
2018-07-04T03:26:29.620Z,23.97
2018-07-04T03:27:10.079Z,23.97
2018-07-04T03:27:51.078Z,23.93
2018-07-04T03:28:31.574Z,24.03
2018-07-04T03:29:12.073Z,24.08
2018-07-04T03:29:52.569Z,24.08
2018-07-04T03:30:33.105Z,24.06
2018-07-04T03:31:13.612Z,24.09
2018-07-04T03:31:54.050Z,24.16
2018-07-04T03:32:34.581Z,24.1
2018-07-04T03:33:15.480Z,24.02
2018-07-04T03:33:55.966Z,23.98
2018-07-04T03:34:36.453Z,23.88
2018-07-04T03:35:16.953Z,23.93
2018-07-04T03:35:57.428Z,23.95
2018-07-04T03:36:38.547Z,23.98
2018-07-04T03:37:19.066Z,23.94
2018-07-04T03:37:59.598Z,23.95
2018-07-04T03:38:40.034Z,23.97
2018-07-04T03:39:21.340Z,24.02
2018-07-04T03:40:01.844Z,24.09
2018-07-04T03:40:42.362Z,24.05
2018-07-04T03:41:23.851Z,24.08
2018-07-04T03:42:04.323Z,24.09
2018-07-04T03:42:44.816Z,24.06
2018-07-04T03:43:25.340Z,24.06
2018-07-04T03:44:05.804Z,23.88
2018-07-04T03:44:46.249Z,23.97
2018-07-04T03:45:27.340Z,24.09
2018-07-04T03:46:07.831Z,24.08
2018-07-04T03:46:48.318Z,24.13
2018-07-04T03:47:28.815Z,24.03
2018-07-04T03:48:09.475Z,24.1
2018-07-04T03:48:50.762Z,24.15
2018-07-04T03:49:31.235Z,24.06
2018-07-04T03:50:11.769Z,24.21
2018-07-04T03:50:52.453Z,24.12
2018-07-04T03:51:33.733Z,24.13
2018-07-04T03:52:14.452Z,24.16
2018-07-04T03:52:54.921Z,24.27
2018-07-04T03:53:35.463Z,24.25
2018-07-04T03:54:15.917Z,24.1
2018-07-04T03:54:56.386Z,24.15
2018-07-04T03:55:37.597Z,24.24
2018-07-04T03:56:18.776Z,24.2
2018-07-04T03:57:00.060Z,24.27
2018-07-04T03:57:40.418Z,24.27
2018-07-04T03:58:20.961Z,24.35
2018-07-04T03:59:01.520Z,24.32
2018-07-04T03:59:42.060Z,24.37
2018-07-04T04:00:22.579Z,24.35
2018-07-04T04:01:03.086Z,24.28
2018-07-04T04:01:43.559Z,24.31
2018-07-04T04:02:24.710Z,24.22
2018-07-04T04:03:05.231Z,24.31
2018-07-04T04:03:45.729Z,24.31
2018-07-04T04:04:26.212Z,24.35
2018-07-04T04:05:06.734Z,24.39
2018-07-04T04:05:47.166Z,24.39
2018-07-04T04:06:27.726Z,24.45
2018-07-04T04:07:08.170Z,24.45
2018-07-04T04:07:48.708Z,24.45
2018-07-04T04:08:29.222Z,24.47
2018-07-04T04:09:11.358Z,24.52
2018-07-04T04:09:51.853Z,24.47
2018-07-04T04:10:33.054Z,24.62
2018-07-04T04:11:13.535Z,24.67
2018-07-04T04:11:56.890Z,24.69
2018-07-04T04:12:37.365Z,24.73
2018-07-04T04:13:17.894Z,24.67
2018-07-04T04:13:58.385Z,24.64
2018-07-04T04:14:39.430Z,24.71
2018-07-04T04:15:19.968Z,24.77
2018-07-04T04:16:00.437Z,24.85
2018-07-04T04:16:40.946Z,24.9
2018-07-04T04:17:21.445Z,24.9
2018-07-04T04:18:01.901Z,24.91
2018-07-04T04:18:42.396Z,24.88
2018-07-04T04:19:23.458Z,24.93
2018-07-04T04:20:05.469Z,24.9
2018-07-04T04:20:45.944Z,24.85
2018-07-04T04:21:26.482Z,24.95
2018-07-04T04:22:07.519Z,24.95
2018-07-04T04:22:48.023Z,24.96
2018-07-04T04:23:28.657Z,25.03
2018-07-04T04:24:10.051Z,24.99
2018-07-04T04:24:50.519Z,24.98
2018-07-04T04:25:31.020Z,24.96
2018-07-04T04:26:11.503Z,25
2018-07-04T04:26:52.019Z,25.05
2018-07-04T04:27:32.473Z,25.14
2018-07-04T04:28:12.965Z,25.13
2018-07-04T04:28:53.519Z,25.05
2018-07-04T04:29:34.029Z,25.09
2018-07-04T04:30:14.492Z,25.23
2018-07-04T04:30:55.030Z,25.2
2018-07-04T04:31:35.510Z,25.27
2018-07-04T04:32:16.767Z,25.33
2018-07-04T04:32:57.230Z,25.33
2018-07-04T04:33:37.736Z,25.39
2018-07-04T04:34:18.273Z,25.42
2018-07-04T04:34:58.758Z,25.3
2018-07-04T04:35:39.242Z,25.38
2018-07-04T04:36:19.788Z,25.4
2018-07-04T04:37:01.114Z,25.36
2018-07-04T04:37:41.628Z,25.32
2018-07-04T04:38:22.123Z,25.3
2018-07-04T04:39:02.610Z,25.38
2018-07-04T04:39:43.240Z,25.38
2018-07-04T04:40:23.721Z,25.32
2018-07-04T04:41:04.200Z,25.38
2018-07-04T04:41:44.723Z,25.35
2018-07-04T04:42:25.230Z,25.35
2018-07-04T04:43:06.523Z,25.39
2018-07-04T04:43:47.041Z,25.42
2018-07-04T04:44:29.357Z,25.45
2018-07-04T04:45:09.861Z,25.43
2018-07-04T04:45:50.327Z,25.43
2018-07-04T04:46:30.881Z,25.47
2018-07-04T04:47:11.333Z,25.42
2018-07-04T04:47:51.841Z,25.36
2018-07-04T04:48:32.352Z,25.36
2018-07-04T04:49:12.856Z,25.4
2018-07-04T04:49:53.317Z,25.38
2018-07-04T04:50:33.876Z,25.42
2018-07-04T04:51:14.366Z,25.38
2018-07-04T04:51:55.492Z,25.36
2018-07-04T04:52:35.961Z,25.42
2018-07-04T04:53:17.042Z,25.36
2018-07-04T04:53:57.543Z,25.43
2018-07-04T04:54:38.047Z,25.51
2018-07-04T04:55:18.504Z,25.43
2018-07-04T04:55:59.017Z,25.38
2018-07-04T04:56:39.542Z,25.39
2018-07-04T04:57:20.067Z,25.57
2018-07-04T04:58:00.543Z,25.46
2018-07-04T04:58:41.063Z,25.52
2018-07-04T04:59:21.556Z,25.57
2018-07-04T05:00:02.070Z,25.61
2018-07-04T05:00:42.552Z,25.69
2018-07-04T05:01:23.065Z,25.6
2018-07-04T05:02:03.558Z,25.7
2018-07-04T05:02:44.108Z,25.65
2018-07-04T05:03:24.564Z,25.65
2018-07-04T05:04:05.042Z,25.67
2018-07-04T05:04:45.575Z,25.67
2018-07-04T05:05:26.749Z,25.72
2018-07-04T05:06:07.313Z,25.76
2018-07-04T05:06:47.854Z,25.75
2018-07-04T05:07:28.337Z,25.83
2018-07-04T05:08:09.467Z,25.77
2018-07-04T05:08:50.231Z,25.76
2018-07-04T05:09:31.236Z,25.8
2018-07-04T05:10:11.794Z,25.82
2018-07-04T05:10:52.302Z,25.8
2018-07-04T05:11:32.821Z,25.88
2018-07-04T05:12:13.322Z,25.92
2018-07-04T05:12:53.835Z,25.87
2018-07-04T05:13:34.314Z,25.94
2018-07-04T05:14:14.825Z,26.07
2018-07-04T05:14:55.341Z,26.02
2018-07-04T05:15:35.775Z,26.01
2018-07-04T05:16:16.272Z,26.13
2018-07-04T05:16:56.779Z,26.25
2018-07-04T05:17:37.277Z,26.18
2018-07-04T05:18:17.777Z,26.2
2018-07-04T05:18:58.282Z,26.33
2018-07-04T05:19:38.878Z,26.37
2018-07-04T05:20:19.420Z,26.44
2018-07-04T05:20:59.952Z,26.37
2018-07-04T05:21:40.429Z,26.35
2018-07-04T05:22:20.923Z,26.25
2018-07-04T05:23:01.444Z,26.23
2018-07-04T05:23:41.934Z,26.32
2018-07-04T05:24:23.405Z,26.37
2018-07-04T05:25:04.413Z,26.44
2018-07-04T05:25:45.010Z,26.55
2018-07-04T05:27:43.164Z,26.57
2018-07-04T05:28:23.758Z,26.6
2018-07-04T05:29:04.271Z,26.5
2018-07-04T05:29:44.804Z,26.43
2018-07-04T05:30:25.293Z,26.44
2018-07-04T05:31:06.660Z,26.52
2018-07-04T05:31:47.198Z,26.39
2018-07-04T05:32:27.633Z,26.43
2018-07-04T05:33:08.155Z,26.4
2018-07-04T05:33:49.439Z,26.32
2018-07-04T05:34:29.949Z,26.35
2018-07-04T05:35:10.493Z,26.39
2018-07-04T05:35:50.972Z,26.37
2018-07-04T05:36:31.463Z,26.37
2018-07-04T05:37:11.988Z,26.4
2018-07-04T05:37:52.548Z,26.43
2018-07-04T05:38:32.973Z,26.32
2018-07-04T05:39:13.514Z,26.29
2018-07-04T05:39:54.004Z,26.32
2018-07-04T05:40:36.443Z,26.23
2018-07-04T05:41:16.955Z,26.1
2018-07-04T05:41:57.456Z,26.26
2018-07-04T05:42:38.059Z,26.07
2018-07-04T05:43:18.568Z,26.2
2018-07-04T05:43:59.257Z,26.12
2018-07-04T05:44:39.763Z,26.18
2018-07-04T05:45:21.130Z,26.1
2018-07-04T05:46:01.653Z,26.17
2018-07-04T05:46:42.195Z,26.17
2018-07-04T05:47:23.596Z,26.13
2018-07-04T05:48:03.957Z,26.12
2018-07-04T05:48:45.193Z,26.37
2018-07-04T05:49:25.668Z,26.21
2018-07-04T05:50:06.144Z,26.15
2018-07-04T05:50:46.740Z,26.2
2018-07-04T05:51:27.933Z,26.33
2018-07-04T05:52:08.415Z,26.09
2018-07-04T05:52:48.922Z,26.1
2018-07-04T05:53:29.399Z,26.1
2018-07-04T05:54:10.005Z,26.26
2018-07-04T05:54:50.430Z,26.26
2018-07-04T05:55:30.941Z,26.37
2018-07-04T05:56:11.434Z,26.43
2018-07-04T05:56:52.703Z,26.44
2018-07-04T05:57:33.213Z,26.37
2018-07-04T05:58:13.744Z,26.45
2018-07-04T05:58:54.216Z,26.33
2018-07-04T05:59:34.819Z,26.26
2018-07-04T06:00:16.083Z,26.33
2018-07-04T06:00:56.564Z,26.5
2018-07-04T06:01:37.041Z,26.52
2018-07-04T06:02:17.557Z,26.55
2018-07-04T06:02:58.055Z,26.6
2018-07-04T06:03:38.544Z,26.7
2018-07-04T06:04:19.093Z,26.89
2018-07-04T06:04:59.534Z,26.84
2018-07-04T06:05:40.042Z,26.89
2018-07-04T06:06:20.523Z,26.94
2018-07-04T06:07:01.066Z,27.07
2018-07-04T06:07:41.532Z,27.07
2018-07-04T06:08:22.044Z,27.07
2018-07-04T06:09:02.606Z,27.14
2018-07-04T06:09:43.062Z,27.12
2018-07-04T06:10:23.584Z,27.27
2018-07-04T06:11:04.103Z,27.44
2018-07-04T06:11:44.616Z,27.57
2018-07-04T06:12:25.726Z,27.72
2018-07-04T06:13:07.175Z,27.87
2018-07-04T06:13:47.668Z,28.04
2018-07-04T06:14:28.165Z,28.24
2018-07-04T06:15:09.325Z,28.27
2018-07-04T06:15:49.787Z,28.24
2018-07-04T06:16:30.959Z,28.3
2018-07-04T06:17:11.985Z,28.36
2018-07-04T06:17:52.507Z,28.31
2018-07-04T06:18:33.035Z,28.3
2018-07-04T06:19:13.544Z,28.33
2018-07-04T06:19:54.039Z,28.31
2018-07-04T06:20:34.564Z,28.41
2018-07-04T06:21:15.111Z,28.52
2018-07-04T06:21:55.557Z,28.49
2018-07-04T06:22:36.171Z,28.62
2018-07-04T06:23:16.620Z,28.67
2018-07-04T06:23:57.157Z,28.76
2018-07-04T06:24:38.557Z,28.7
2018-07-04T06:25:19.751Z,28.66
2018-07-04T06:26:00.210Z,28.59
2018-07-04T06:26:40.788Z,28.43
2018-07-04T06:27:21.316Z,28.41
2018-07-04T06:28:01.829Z,28.41
2018-07-04T06:28:42.365Z,28.56
2018-07-04T06:29:22.896Z,28.4
2018-07-04T06:30:03.431Z,28.56
2018-07-04T06:30:44.661Z,28.4
2018-07-04T06:31:25.165Z,28.4
2018-07-04T06:32:05.691Z,28.51
2018-07-04T06:32:46.201Z,28.62
2018-07-04T06:33:26.681Z,28.66
2018-07-04T06:34:08.022Z,28.62
2018-07-04T06:34:48.539Z,28.66
2018-07-04T06:35:29.920Z,28.77
2018-07-04T06:36:10.395Z,28.73
2018-07-04T06:36:51.657Z,28.61
2018-07-04T06:37:32.225Z,28.58
2018-07-04T06:38:12.731Z,28.62
2018-07-04T06:38:53.219Z,28.76
2018-07-04T06:39:33.707Z,28.9
2018-07-04T06:40:14.218Z,29
2018-07-04T06:40:54.732Z,28.96
2018-07-04T06:41:35.228Z,28.96
2018-07-04T06:42:15.710Z,29.04
2018-07-04T06:42:58.004Z,29.24
2018-07-04T06:43:38.450Z,29.41
2018-07-04T06:44:18.944Z,29.45
2018-07-04T06:44:59.489Z,29.36
2018-07-04T06:45:39.995Z,29.39
2018-07-04T06:46:20.495Z,29.39
2018-07-04T06:47:01.034Z,29.57
2018-07-04T06:47:41.494Z,29.63
2018-07-04T06:48:22.003Z,29.76
2018-07-04T06:49:02.558Z,29.39
2018-07-04T06:49:43.929Z,29.57
2018-07-04T06:50:25.104Z,29.82
2018-07-04T06:51:05.615Z,30
2018-07-04T06:51:46.122Z,29.86
2018-07-04T06:52:26.674Z,29.89
2018-07-04T06:53:07.161Z,30
2018-07-04T06:53:47.658Z,30.04
2018-07-04T06:54:28.233Z,30.11
2018-07-04T06:55:08.635Z,30.02
2018-07-04T06:55:49.169Z,30.13
2018-07-04T06:56:29.615Z,30.07
2018-07-04T06:57:10.184Z,30.05
2018-07-04T06:57:50.659Z,29.9
2018-07-04T06:58:31.680Z,29.89
2018-07-04T06:59:12.166Z,29.74
2018-07-04T06:59:52.694Z,29.86
2018-07-04T07:00:33.240Z,29.86
2018-07-04T07:01:13.713Z,29.9
2018-07-04T07:01:54.221Z,29.94
2018-07-04T07:02:34.691Z,29.83
2018-07-04T07:03:15.222Z,29.98
2018-07-04T07:03:55.690Z,30.08
2018-07-04T07:04:36.320Z,30.01
2018-07-04T07:05:16.737Z,30.01
2018-07-04T07:05:57.915Z,29.82
2018-07-04T07:06:38.511Z,29.8
2018-07-04T07:07:19.013Z,29.82
2018-07-04T07:07:59.557Z,29.79
2018-07-04T07:08:40.165Z,29.74
2018-07-04T07:09:20.580Z,29.95
2018-07-04T07:10:01.106Z,30.07
2018-07-04T07:10:41.568Z,30.11
2018-07-04T07:11:22.049Z,30.2
2018-07-04T07:12:02.584Z,30.1
2018-07-04T07:12:43.111Z,30.16
2018-07-04T07:13:23.590Z,30.26
2018-07-04T07:14:04.096Z,29.98
2018-07-04T07:14:44.596Z,29.8
2018-07-04T07:15:25.058Z,29.76
2018-07-04T07:16:05.586Z,29.64
2018-07-04T07:16:46.128Z,29.57
2018-07-04T07:17:26.568Z,29.64
2018-07-04T07:18:07.102Z,29.65
2018-07-04T07:18:47.631Z,29.58
2018-07-04T07:19:28.853Z,29.61
2018-07-04T07:20:09.366Z,29.61
2018-07-04T07:20:50.557Z,29.79
2018-07-04T07:21:31.673Z,29.98
2018-07-04T07:22:12.113Z,29.98
2018-07-04T07:22:54.099Z,30.19
2018-07-04T07:23:34.677Z,30.2
2018-07-04T07:24:15.137Z,30.22
2018-07-04T07:24:55.645Z,30.17
2018-07-04T07:25:36.644Z,30.29
2018-07-04T07:26:17.172Z,30.45
2018-07-04T07:26:57.676Z,30.49
2018-07-04T07:27:38.213Z,30.62
2018-07-04T07:28:19.190Z,30.7
2018-07-04T07:29:00.357Z,30.7
2018-07-04T07:29:40.839Z,30.75
2018-07-04T07:30:21.367Z,30.76
2018-07-04T07:31:01.832Z,30.86
2018-07-04T07:31:42.394Z,30.82
2018-07-04T07:32:22.867Z,30.72
2018-07-04T07:33:04.098Z,30.53
2018-07-04T07:33:44.616Z,30.51
2018-07-04T07:34:25.834Z,30.37
2018-07-04T07:35:06.318Z,30.37
2018-07-04T07:35:46.839Z,30.32
2018-07-04T07:36:27.342Z,30.64
2018-07-04T07:37:08.494Z,30.46
2018-07-04T07:37:49.124Z,30.51
2018-07-04T07:38:29.565Z,30.67
2018-07-04T07:39:10.237Z,30.64
2018-07-04T07:39:51.606Z,30.6
2018-07-04T07:40:32.109Z,30.53
2018-07-04T07:41:13.405Z,30.38
2018-07-04T07:41:53.931Z,30.46
2018-07-04T07:42:34.446Z,30.32
2018-07-04T07:43:14.938Z,30.32
2018-07-04T07:43:55.444Z,30.57
2018-07-04T07:44:35.930Z,30.69
2018-07-04T07:45:17.214Z,30.75
2018-07-04T07:45:57.775Z,30.72
2018-07-04T07:46:40.158Z,30.53
2018-07-04T07:47:20.699Z,30.54
2018-07-04T07:48:01.448Z,30.27
2018-07-04T07:48:41.994Z,30.24
2018-07-04T07:49:22.564Z,30.23
2018-07-04T07:50:03.058Z,30.19
2018-07-04T07:50:44.328Z,30.1
2018-07-04T07:51:25.701Z,30.31
2018-07-04T07:52:07.527Z,30.23
2018-07-04T07:52:48.517Z,30.17
2018-07-04T07:53:29.017Z,30.24
2018-07-04T07:54:09.528Z,30.05
2018-07-04T07:54:50.691Z,29.89
2018-07-04T07:55:32.047Z,30.05
2018-07-04T07:56:13.468Z,30.11
2018-07-04T07:56:53.971Z,30.11
2018-07-04T07:57:34.451Z,30.08
2018-07-04T07:58:14.975Z,30.04
2018-07-04T07:58:55.460Z,30
2018-07-04T07:59:35.955Z,29.85
2018-07-04T08:00:16.714Z,30.02
2018-07-04T08:00:57.178Z,30.01
2018-07-04T08:01:37.722Z,29.78
2018-07-04T08:02:18.226Z,29.73
2018-07-04T08:02:58.742Z,29.86
2018-07-04T08:03:39.246Z,29.98
2018-07-04T08:04:19.782Z,29.85
2018-07-04T08:05:01.023Z,29.86
2018-07-04T08:05:41.535Z,29.83
2018-07-04T08:06:22.066Z,29.86
2018-07-04T08:07:02.535Z,29.87
2018-07-04T08:07:43.065Z,29.83
2018-07-04T08:08:23.558Z,29.98
2018-07-04T08:09:04.076Z,29.97
2018-07-04T08:09:44.559Z,29.86
2018-07-04T08:10:25.098Z,29.9
2018-07-04T08:11:05.560Z,29.86
2018-07-04T08:11:46.656Z,29.9
2018-07-04T08:12:27.118Z,29.8
2018-07-04T08:13:08.456Z,29.87
2018-07-04T08:13:48.937Z,29.8
2018-07-04T08:14:29.444Z,29.79
2018-07-04T08:15:10.809Z,29.85
2018-07-04T08:15:51.334Z,29.97
2018-07-04T08:16:31.835Z,30
2018-07-04T08:17:12.361Z,30.08
2018-07-04T08:17:52.888Z,30.07
2018-07-04T08:18:33.471Z,30.2
2018-07-04T08:19:13.988Z,30.23
2018-07-04T08:19:55.491Z,30.11
2018-07-04T08:20:35.940Z,30.23
2018-07-04T08:21:16.547Z,30.19
2018-07-04T08:21:57.662Z,30.19
2018-07-04T08:22:39.533Z,30.19
2018-07-04T08:23:20.078Z,30.07
2018-07-04T08:24:02.052Z,29.97
2018-07-04T08:24:42.587Z,30
2018-07-04T08:25:23.050Z,29.98
2018-07-04T08:26:03.663Z,29.97
2018-07-04T08:26:44.209Z,30.02
2018-07-04T08:27:24.689Z,30.11
2018-07-04T08:28:05.356Z,30.05
2018-07-04T08:28:45.748Z,30.04
2018-07-04T08:29:26.249Z,30.1
2018-07-04T08:30:06.736Z,30.23
2018-07-04T08:30:47.341Z,30.32
2018-07-04T08:31:27.900Z,30.37
2018-07-04T08:32:08.334Z,30.24
2018-07-04T08:32:48.846Z,30.23
2018-07-04T08:33:29.374Z,30.24
2018-07-04T08:34:09.881Z,30.24
2018-07-04T08:34:50.393Z,30.23
2018-07-04T08:35:30.877Z,30.24
2018-07-04T08:36:11.341Z,30.22
2018-07-04T08:36:53.561Z,30.26
2018-07-04T08:37:34.048Z,30.29
2018-07-04T08:38:15.476Z,30.39
2018-07-04T08:38:56.063Z,30.47
2018-07-04T08:39:36.623Z,30.29
2018-07-04T08:40:17.831Z,30.26
2018-07-04T08:40:58.317Z,30.37
2018-07-04T08:41:38.835Z,30.53
2018-07-04T08:42:19.318Z,30.53
2018-07-04T08:43:00.689Z,30.58
2018-07-04T08:43:41.214Z,30.62
2018-07-04T08:44:22.270Z,30.67
2018-07-04T08:45:02.760Z,30.72
2018-07-04T08:45:43.261Z,30.79
2018-07-04T08:46:23.818Z,30.94
2018-07-04T08:47:04.326Z,30.88
2018-07-04T08:47:44.829Z,30.94